Time;durP1;ratioP1;P1;durP2;ratioP2;P2;SDS_P1;SDS_P2;PMS_P1;PMS_P2;Temp;Humidity;BMP_temperature;BMP_pressure;BME280_temperature;BME280_humidity;BME280_pressure;Samples;Min_cycle;Max_cycle;Signal;HPM_P1;HPM_P2
2021/07/22 00:01:23;;;;;;;18.98;17.23;;;;;;;19.44;62.27;95837.78;5071920;28;20600;-68
2021/07/22 00:03:48;;;;;;;19.10;17.00;;;;;;;19.38;62.46;95828.38;5067942;28;20037;-69
2021/07/22 00:06:14;;;;;;;25.40;18.30;;;;;;;19.51;62.09;95851.50;5062295;28;20033;-71
2021/07/22 00:08:39;;;;;;;20.42;18.33;;;;;;;19.36;62.35;95830.66;5050444;28;20056;-69
2021/07/22 00:11:08;;;;;;;17.88;16.08;;;;;;;19.40;62.54;95831.53;5071490;28;20028;-68
2021/07/22 00:13:33;;;;;;;16.83;15.13;;;;;;;19.36;62.83;95839.53;5066645;28;20587;-68
2021/07/22 00:15:59;;;;;;;19.02;17.10;;;;;;;19.21;62.49;95813.28;5069467;28;20072;-68
2021/07/22 00:18:25;;;;;;;18.20;16.15;;;;;;;19.25;62.41;95824.19;5060246;28;20036;-69
2021/07/22 00:20:50;;;;;;;17.52;15.93;;;;;;;19.39;62.54;95840.75;5049165;28;20091;-65
2021/07/22 00:23:16;;;;;;;18.85;16.85;;;;;;;19.28;62.47;95818.09;5050948;28;20025;-68
2021/07/22 00:25:42;;;;;;;19.23;17.42;;;;;;;19.37;62.58;95840.31;5068157;28;20045;-68
2021/07/22 00:28:08;;;;;;;19.13;16.35;;;;;;;19.22;62.40;95823.72;5069175;28;20040;-68
2021/07/22 00:30:33;;;;;;;18.63;16.70;;;;;;;19.25;62.45;95822.25;5066891;28;20044;-68
2021/07/22 00:32:59;;;;;;;20.17;16.52;;;;;;;18.83;62.44;95773.28;5067063;28;20046;-66
2021/07/22 00:35:24;;;;;;;18.38;16.60;;;;;;;19.22;62.71;95834.50;5068022;28;20469;-67
2021/07/22 00:37:50;;;;;;;18.08;16.42;;;;;;;19.20;62.56;95833.28;5088540;28;20026;-67
2021/07/22 00:40:16;;;;;;;18.20;16.42;;;;;;;19.16;62.53;95817.00;5087517;28;20036;-67
2021/07/22 00:42:59;;;;;;;21.38;15.80;;;;;;;19.12;61.99;95809.94;5088918;28;20040;-67
2021/07/22 00:45:24;;;;;;;18.55;16.02;;;;;;;19.12;61.99;95821.50;5088885;28;20547;-67
2021/07/22 00:47:50;;;;;;;18.60;16.00;;;;;;;19.22;61.85;95823.72;5087644;28;20044;-68
2021/07/22 00:50:16;;;;;;;17.80;15.98;;;;;;;19.19;62.21;95821.72;5073472;28;20066;-67
2021/07/22 00:52:41;;;;;;;18.33;15.57;;;;;;;19.06;62.38;95803.22;5068352;28;20546;-67
2021/07/22 00:55:07;;;;;;;18.08;16.15;;;;;;;19.17;62.28;95832.03;5068677;28;20454;-68
2021/07/22 00:57:32;;;;;;;19.30;16.60;;;;;;;19.12;62.21;95826.91;5059064;28;20043;-67
2021/07/22 00:59:57;;;;;;;18.88;16.15;;;;;;;18.96;62.30;95802.56;5048717;28;20069;-67
2021/07/22 01:02:23;;;;;;;16.85;15.23;;;;;;;18.96;62.29;95810.66;5050061;28;20116;-67
2021/07/22 01:04:48;;;;;;;18.10;16.02;;;;;;;18.79;62.51;95797.44;5067747;28;20041;-67
2021/07/22 01:07:13;;;;;;;18.92;16.13;;;;;;;18.94;62.40;95812.91;5068370;28;20071;-67
2021/07/22 01:09:38;;;;;;;18.33;16.50;;;;;;;18.85;62.41;95808.78;5067268;28;20132;-67
2021/07/22 01:12:04;;;;;;;17.10;15.45;;;;;;;18.72;62.31;95781.03;5061609;28;20033;-67
2021/07/22 01:14:29;;;;;;;27.33;17.95;;;;;;;18.90;62.22;95809.31;5048443;28;20032;-67
2021/07/22 01:16:55;;;;;;;19.70;16.02;;;;;;;18.62;62.34;95773.41;5070421;28;20373;-67
2021/07/22 01:19:20;;;;;;;16.67;14.98;;;;;;;18.78;62.43;95808.53;5067684;28;20040;-68
2021/07/22 01:21:45;;;;;;;17.10;15.30;;;;;;;18.62;62.38;95793.03;5056878;28;20626;-67
2021/07/22 01:24:11;;;;;;;18.52;16.60;;;;;;;18.55;62.32;95781.28;5053084;28;20036;-67
2021/07/22 01:26:36;;;;;;;16.30;14.70;;;;;;;18.76;62.36;95814.28;5068157;28;20028;-67
2021/07/22 01:29:01;;;;;;;17.60;15.95;;;;;;;18.67;62.29;95808.97;5070273;28;20021;-67
2021/07/22 01:31:27;;;;;;;17.17;15.07;;;;;;;18.69;62.77;95812.16;5068563;28;20044;-67
2021/07/22 01:33:52;;;;;;;17.77;14.75;;;;;;;18.32;62.64;95754.00;5067261;28;20048;-68
2021/07/22 01:36:22;;;;;;;20.08;16.20;;;;;;;18.62;62.53;95803.03;5068094;28;20051;-67
2021/07/22 01:38:51;;;;;;;16.70;14.80;;;;;;;18.55;62.53;95789.38;5068208;28;20040;-67
2021/07/22 01:41:17;;;;;;;18.45;15.50;;;;;;;18.54;63.03;95795.88;5071087;28;20107;-67
2021/07/22 01:43:42;;;;;;;16.73;15.02;;;;;;;18.53;62.92;95789.72;5071828;28;20127;-67
2021/07/22 01:46:07;;;;;;;19.00;16.52;;;;;;;18.50;62.80;95789.59;5072285;28;20047;-68
2021/07/22 01:48:33;;;;;;;24.63;16.35;;;;;;;18.55;62.97;95800.91;5072048;28;20043;-68
2021/07/22 01:50:58;;;;;;;18.48;16.63;;;;;;;18.52;63.04;95792.72;5071430;28;20064;-68
2021/07/22 01:53:23;;;;;;;16.20;14.70;;;;;;;18.54;63.48;95796.66;5073602;28;20032;-68
2021/07/22 01:55:48;;;;;;;19.23;15.35;;;;;;;18.40;63.40;95769.28;5071053;28;20051;-67
2021/07/22 01:58:14;;;;;;;20.85;16.55;;;;;;;18.66;63.20;95802.03;5072447;28;20033;-68
2021/07/22 02:00:39;;;;;;;20.35;17.63;;;;;;;18.50;63.28;95793.06;5072333;28;20028;-67
2021/07/22 02:03:05;;;;;;;20.63;17.20;;;;;;;18.36;63.80;95782.63;5071867;28;20029;-67
2021/07/22 02:05:30;;;;;;;17.20;15.20;;;;;;;18.44;64.30;95807.91;5077795;28;20401;-68
2021/07/22 02:07:55;;;;;;;19.13;17.13;;;;;;;18.50;63.58;95809.22;5074584;28;20028;-67
2021/07/22 02:10:21;;;;;;;19.98;17.33;;;;;;;18.41;63.85;95784.31;5072265;28;20131;-67
2021/07/22 02:12:46;;;;;;;17.80;15.63;;;;;;;18.45;63.85;95796.00;5071512;28;20062;-67
2021/07/22 02:15:12;;;;;;;17.30;15.32;;;;;;;18.44;63.90;95810.59;5072006;28;20045;-67
2021/07/22 02:17:37;;;;;;;18.75;15.07;;;;;;;18.38;63.82;95785.00;5070601;28;20028;-67
2021/07/22 02:20:03;;;;;;;23.55;18.60;;;;;;;18.55;63.62;95814.41;5065136;28;20036;-67
2021/07/22 02:22:29;;;;;;;19.30;16.55;;;;;;;18.50;63.57;95811.16;5071614;28;20041;-67
2021/07/22 02:24:54;;;;;;;20.25;16.38;;;;;;;18.42;63.62;95805.53;5059060;28;20047;-67
2021/07/22 02:27:19;;;;;;;20.70;17.60;;;;;;;18.28;63.61;95785.47;5059282;28;20047;-67
2021/07/22 02:29:44;;;;;;;21.50;18.40;;;;;;;18.26;64.18;95791.16;5071770;28;20081;-67
2021/07/22 02:32:10;;;;;;;22.88;19.17;;;;;;;18.29;64.20;95795.09;5073594;28;20021;-67
2021/07/22 02:34:35;;;;;;;19.75;17.55;;;;;;;18.32;63.98;95815.97;5070566;28;20045;-67
2021/07/22 02:37:00;;;;;;;22.65;17.48;;;;;;;18.15;64.72;95785.44;5055550;28;20076;-67
2021/07/22 02:39:26;;;;;;;17.77;16.08;;;;;;;18.30;64.65;95807.44;5058073;28;20048;-67
2021/07/22 02:41:51;;;;;;;18.38;16.55;;;;;;;18.29;64.91;95805.88;5071330;28;20040;-67
2021/07/22 02:44:17;;;;;;;19.60;16.08;;;;;;;18.37;64.69;95813.03;5073052;28;20082;-67
2021/07/22 02:46:42;;;;;;;21.00;17.90;;;;;;;18.18;64.11;95784.00;5052563;28;20457;-67
2021/07/22 02:49:07;;;;;;;18.02;16.02;;;;;;;17.94;64.53;95768.63;5064669;28;20052;-69
2021/07/22 02:51:32;;;;;;;23.50;17.60;;;;;;;18.22;64.58;95798.38;5071204;28;20029;-67
2021/07/22 02:53:58;;;;;;;17.80;16.10;;;;;;;18.21;64.26;95802.16;5064205;28;20051;-67
2021/07/22 02:56:23;;;;;;;18.23;16.52;;;;;;;18.28;64.27;95823.94;5053124;28;20013;-67
2021/07/22 02:58:49;;;;;;;25.70;16.70;;;;;;;18.27;64.51;95817.00;5070916;28;20195;-67
2021/07/22 03:01:14;;;;;;;19.85;16.08;;;;;;;18.17;64.21;95804.75;5071194;28;20052;-67
2021/07/22 03:03:39;;;;;;;19.95;17.05;;;;;;;18.07;64.17;95794.44;5070808;28;20036;-66
2021/07/22 03:06:05;;;;;;;17.58;15.35;;;;;;;18.20;64.15;95816.75;5069823;28;20413;-67
2021/07/22 03:08:30;;;;;;;20.35;16.75;;;;;;;18.19;64.18;95818.66;5069415;28;20047;-66
2021/07/22 03:10:55;;;;;;;19.45;17.40;;;;;;;17.99;63.92;95789.94;5072698;28;20066;-66
2021/07/22 03:13:21;;;;;;;19.70;16.50;;;;;;;18.14;63.95;95813.50;5070014;28;20028;-67
2021/07/22 03:15:46;;;;;;;19.23;16.80;;;;;;;17.93;63.86;95783.19;5070953;28;20041;-67
2021/07/22 03:18:11;;;;;;;21.15;17.33;;;;;;;18.02;63.91;95805.41;5069460;28;20139;-67
2021/07/22 03:20:37;;;;;;;19.17;17.15;;;;;;;18.11;64.09;95814.16;5068830;28;20017;-67
2021/07/22 03:23:02;;;;;;;19.92;16.90;;;;;;;17.98;64.12;95799.13;5071718;28;20035;-67
2021/07/22 03:25:28;;;;;;;21.38;18.25;;;;;;;18.07;64.32;95826.75;5069854;28;20076;-67
2021/07/22 03:27:57;;;;;;;21.67;17.90;;;;;;;17.94;64.45;95795.53;5070362;28;20070;-67
2021/07/22 03:30:22;;;;;;;22.10;17.83;;;;;;;18.06;64.67;95821.66;5069294;28;20383;-67
2021/07/22 03:32:48;;;;;;;20.83;16.02;;;;;;;18.00;64.36;95815.72;5065620;28;20040;-67
2021/07/22 03:35:13;;;;;;;19.88;17.90;;;;;;;17.96;64.68;95811.34;5050351;28;20060;-67
2021/07/22 03:37:38;;;;;;;21.77;19.45;;;;;;;17.88;65.06;95802.25;5047787;28;20029;-67
2021/07/22 03:40:04;;;;;;;21.27;16.75;;;;;;;17.99;65.20;95816.06;5058940;28;20048;-67
2021/07/22 03:42:31;;;;;;;19.83;16.58;;;;;;;17.92;65.46;95803.16;5057207;28;20123;-67
2021/07/22 03:44:56;;;;;;;21.42;19.27;;;;;;;18.06;65.10;95818.97;5069788;28;20473;-67
2021/07/22 03:47:22;;;;;;;22.08;18.33;;;;;;;17.99;65.27;95810.69;5072026;28;20052;-68
2021/07/22 03:49:47;;;;;;;18.48;16.05;;;;;;;18.01;64.97;95795.75;5069164;28;20098;-67
2021/07/22 03:52:13;;;;;;;19.58;17.52;;;;;;;18.12;64.68;95806.88;5069219;28;20067;-68
2021/07/22 03:54:39;;;;;;;18.88;16.63;;;;;;;18.10;64.58;95801.81;5059911;28;20079;-67
2021/07/22 03:57:04;;;;;;;18.42;16.73;;;;;;;18.15;64.74;95801.59;5053583;28;20056;-67
2021/07/22 03:59:30;;;;;;;18.35;16.40;;;;;;;18.18;64.73;95803.63;5069854;28;20430;-67
2021/07/22 04:01:55;;;;;;;17.30;15.60;;;;;;;18.24;64.61;95800.72;5071566;28;20013;-66
2021/07/22 04:04:21;;;;;;;18.08;16.15;;;;;;;18.41;64.54;95822.03;5067624;28;20036;-67
2021/07/22 04:06:46;;;;;;;17.58;15.90;;;;;;;18.43;64.05;95809.03;5067391;28;20119;-67
2021/07/22 04:09:11;;;;;;;15.65;14.20;;;;;;;18.50;63.87;95800.38;5063127;28;20111;-67
2021/07/22 04:11:37;;;;;;;16.95;13.90;;;;;;;18.70;63.48;95818.34;5050981;28;20070;-67
2021/07/22 04:14:06;;;;;;;13.73;12.43;;;;;;;18.94;62.72;95825.59;5071135;28;20059;-67
2021/07/22 04:16:33;;;;;;;14.38;13.07;;;;;;;19.10;61.93;95833.78;5069215;28;20521;-67
2021/07/22 04:18:59;;;;;;;15.80;14.13;;;;;;;19.15;61.52;95820.84;5069453;28;20037;-67
2021/07/22 04:21:24;;;;;;;16.23;14.63;;;;;;;19.37;60.84;95837.59;5067177;28;20520;-67
2021/07/22 04:23:49;;;;;;;15.35;13.85;;;;;;;19.41;60.13;95819.63;5068710;28;20044;-67
2021/07/22 04:26:16;;;;;;;14.88;12.95;;;;;;;19.64;59.69;95831.44;5070865;28;20068;-67
2021/07/22 04:28:42;;;;;;;14.30;12.82;;;;;;;19.73;59.23;95817.78;5068987;28;20037;-67
2021/07/22 04:31:07;;;;;;;16.17;13.18;;;;;;;19.92;58.48;95822.53;5068846;28;20043;-67
2021/07/22 04:33:33;;;;;;;12.65;11.45;;;;;;;20.05;58.37;95826.72;5068713;28;20521;-67
2021/07/22 04:35:58;;;;;;;12.77;11.63;;;;;;;20.18;57.73;95827.44;5067934;28;20036;-67
2021/07/22 04:38:23;;;;;;;14.77;13.30;;;;;;;20.22;57.58;95820.97;5070918;28;20115;-67
2021/07/22 04:40:49;;;;;;;13.23;11.93;;;;;;;20.33;57.48;95825.88;5048943;28;20063;-67
2021/07/22 04:43:14;;;;;;;13.13;11.85;;;;;;;20.49;57.03;95830.13;5047040;28;20037;-67
2021/07/22 04:45:39;;;;;;;13.43;12.18;;;;;;;20.51;56.76;95808.94;5048792;28;20044;-68
2021/07/22 04:48:05;;;;;;;14.93;13.50;;;;;;;20.54;56.11;95809.41;5048809;28;20041;-68
2021/07/22 04:50:30;;;;;;;13.35;12.15;;;;;;;20.83;56.29;95837.84;5048474;28;20075;-67
2021/07/22 04:52:56;;;;;;;14.70;13.25;;;;;;;20.59;55.68;95782.88;5070137;28;20024;-68
2021/07/22 04:55:21;;;;;;;18.15;13.50;;;;;;;20.94;55.89;95819.94;5052396;28;20037;-68
2021/07/22 04:57:46;;;;;;;15.45;12.32;;;;;;;21.18;55.72;95825.06;5059591;28;20036;-67
2021/07/22 05:00:12;;;;;;;14.50;11.75;;;;;;;21.29;55.58;95826.09;5062323;28;20045;-67
2021/07/22 05:02:37;;;;;;;13.27;11.88;;;;;;;21.46;54.93;95818.72;5049551;28;20028;-67
2021/07/22 05:05:03;;;;;;;24.85;12.52;;;;;;;21.70;54.56;95826.53;5069546;28;20036;-68
2021/07/22 05:07:28;;;;;;;12.98;11.80;;;;;;;21.72;54.21;95809.91;5073235;28;20044;-68
2021/07/22 05:09:54;;;;;;;16.48;13.15;;;;;;;21.94;53.22;95828.13;5087179;28;20039;-67
2021/07/22 05:12:19;;;;;;;13.68;12.43;;;;;;;22.04;53.21;95832.94;5088024;28;20405;-68
2021/07/22 05:14:44;;;;;;;12.63;11.52;;;;;;;22.07;53.03;95809.78;5088908;28;20020;-82
2021/07/22 05:17:10;;;;;;;13.20;12.10;;;;;;;22.31;52.85;95822.19;5090755;28;20028;-73
2021/07/22 05:19:35;;;;;;;13.50;12.30;;;;;;;22.45;52.76;95825.13;5086004;28;20032;-73
2021/07/22 05:22:02;;;;;;;17.23;12.52;;;;;;;22.60;52.51;95830.78;5067726;28;20139;-73
2021/07/22 05:24:27;;;;;;;23.20;12.98;;;;;;;22.79;52.66;95831.44;5068108;28;20036;-73
2021/07/22 05:26:54;;;;;;;15.90;13.48;;;;;;;22.72;52.04;95796.06;5067452;28;20079;-78
2021/07/22 05:29:19;;;;;;;18.50;13.57;;;;;;;23.01;51.74;95823.63;5070891;28;20048;-81
2021/07/22 05:31:45;;;;;;;15.60;14.02;;;;;;;23.02;51.72;95812.41;5049780;28;20079;-79
2021/07/22 05:34:10;;;;;;;15.93;12.32;;;;;;;23.08;51.04;95797.41;5062113;28;20087;-71
2021/07/22 05:36:36;;;;;;;13.25;12.10;;;;;;;23.26;50.48;95813.09;5058307;28;20090;-68
2021/07/22 05:39:03;;;;;;;14.85;13.25;;;;;;;23.45;50.45;95836.63;5052876;28;20086;-75
2021/07/22 05:41:28;;;;;;;14.73;13.40;;;;;;;23.49;50.23;95823.84;5066815;28;20465;-79
2021/07/22 05:43:54;;;;;;;26.23;14.73;;;;;;;23.45;50.14;95806.75;5070367;28;20074;-73
2021/07/22 05:46:21;;;;;;;23.23;13.73;;;;;;;23.70;50.46;95832.28;5066081;28;20048;-70
2021/07/22 05:48:48;;;;;;;15.25;13.40;;;;;;;23.57;49.97;95803.78;5065811;28;20414;-71
2021/07/22 05:51:13;;;;;;;13.88;12.60;;;;;;;23.48;49.68;95795.91;5065751;28;20071;-70
2021/07/22 05:53:39;;;;;;;14.57;13.15;;;;;;;23.65;50.19;95826.38;5045973;28;20101;-70
2021/07/22 05:56:04;;;;;;;14.60;13.20;;;;;;;23.56;50.22;95810.38;5049793;28;20033;-70
2021/07/22 05:58:30;;;;;;;15.90;14.15;;;;;;;23.65;50.15;95818.22;5045778;28;20087;-72
2021/07/22 06:00:57;;;;;;;16.33;14.77;;;;;;;23.67;50.43;95822.16;5060458;28;20036;-67
2021/07/22 06:03:22;;;;;;;15.85;14.20;;;;;;;23.72;50.44;95818.31;5067617;28;20036;-70
2021/07/22 06:05:48;;;;;;;15.50;13.90;;;;;;;23.78;50.02;95822.25;5067005;28;20070;-67
2021/07/22 06:08:14;;;;;;;17.05;15.02;;;;;;;23.76;50.32;95814.50;5068341;28;20052;-70
2021/07/22 06:10:39;;;;;;;17.20;14.73;;;;;;;23.95;50.42;95815.44;5067798;28;20120;-65
2021/07/22 06:13:06;;;;;;;15.35;13.90;;;;;;;23.96;50.28;95808.88;5067528;28;20082;-66
2021/07/22 06:15:31;;;;;;;16.60;14.18;;;;;;;24.06;50.23;95819.84;5059105;28;20128;-68
2021/07/22 06:17:56;;;;;;;17.02;14.75;;;;;;;24.12;49.83;95812.13;5051811;28;20127;-70
2021/07/22 06:20:22;;;;;;;16.33;14.60;;;;;;;24.24;50.08;95811.81;5069302;28;20049;-72
2021/07/22 06:22:47;;;;;;;16.88;14.18;;;;;;;24.35;49.69;95826.31;5066984;28;20127;-70
2021/07/22 06:25:14;;;;;;;28.42;15.55;;;;;;;24.46;50.09;95822.91;5066160;28;20059;-68
2021/07/22 06:27:40;;;;;;;15.05;13.55;;;;;;;24.54;49.93;95816.38;5056789;28;20083;-70
2021/07/22 06:30:06;;;;;;;16.45;14.82;;;;;;;24.58;49.01;95809.81;5051024;28;20120;-70
2021/07/22 06:32:32;;;;;;;18.00;14.13;;;;;;;24.81;48.78;95831.31;5051628;28;20025;-68
2021/07/22 06:34:57;;;;;;;15.50;13.23;;;;;;;24.79;48.23;95824.72;5073416;28;20013;-74
2021/07/22 06:37:22;;;;;;;14.93;13.48;;;;;;;24.89;47.95;95824.78;5070833;28;20037;-73
2021/07/22 06:39:48;;;;;;;18.02;14.45;;;;;;;24.93;47.69;95816.63;5070472;28;20033;-69
2021/07/22 06:42:13;;;;;;;15.90;14.40;;;;;;;24.85;47.43;95828.63;5071450;28;20093;-73
2021/07/22 06:44:39;;;;;;;16.02;14.43;;;;;;;24.86;47.58;95835.63;5071600;28;20059;-75
2021/07/22 06:47:05;;;;;;;15.43;13.90;;;;;;;24.52;48.53;95824.91;5073262;28;20036;-67
2021/07/22 06:49:30;;;;;;;15.45;13.77;;;;;;;24.23;49.30;95821.16;5071327;28;20088;-74
2021/07/22 06:51:55;;;;;;;18.23;14.45;;;;;;;24.61;48.90;95827.28;5058183;28;20432;-71
2021/07/22 06:54:21;;;;;;;15.70;13.38;;;;;;;24.72;48.82;95813.75;5056664;28;20049;-74
2021/07/22 06:56:47;;;;;;;15.27;13.43;;;;;;;24.89;48.25;95815.84;5067030;28;20025;-72
2021/07/22 06:59:13;;;;;;;16.42;14.70;;;;;;;24.90;47.95;95825.56;5052978;28;20025;-74
2021/07/22 07:01:38;;;;;;;15.85;14.30;;;;;;;24.32;49.90;95818.91;5050763;28;20379;-70
2021/07/22 07:04:04;;;;;;;16.00;14.40;;;;;;;24.74;49.50;95820.41;5062300;28;20512;-69
2021/07/22 07:06:32;;;;;;;16.80;15.10;;;;;;;24.89;48.26;95816.59;5069844;28;20063;-67
2021/07/22 07:08:57;;;;;;;16.80;15.02;;;;;;;24.82;48.48;95819.28;5070295;28;20036;-67
2021/07/22 07:11:22;;;;;;;16.00;14.10;;;;;;;25.01;47.78;95814.72;5070980;28;20112;-67
2021/07/22 07:13:48;;;;;;;19.92;15.27;;;;;;;25.25;47.52;95818.78;5049707;28;20064;-67
2021/07/22 07:16:13;;;;;;;17.50;15.52;;;;;;;25.36;46.84;95819.59;5065344;28;20082;-67
2021/07/22 07:18:38;;;;;;;16.73;15.18;;;;;;;25.24;46.87;95828.09;5070592;28;20036;-66
2021/07/22 07:21:04;;;;;;;17.95;15.65;;;;;;;25.31;46.70;95826.19;5064929;28;20049;-66
2021/07/22 07:23:34;;;;;;;16.30;14.77;;;;;;;25.36;47.11;95825.81;5048669;28;20477;-65
2021/07/22 07:26:00;;;;;;;16.05;14.45;;;;;;;25.60;47.03;95826.31;5070602;28;20036;-66
2021/07/22 07:28:25;;;;;;;17.35;15.52;;;;;;;25.63;46.72;95823.56;5052979;28;20130;-66
2021/07/22 07:30:51;;;;;;;17.38;14.23;;;;;;;25.77;46.72;95822.09;5050613;28;20116;-66
2021/07/22 07:33:16;;;;;;;16.25;14.75;;;;;;;25.90;45.88;95810.47;5049856;28;20802;-66
2021/07/22 07:35:42;;;;;;;20.13;15.70;;;;;;;25.77;45.02;95816.66;5049575;28;20025;-66
2021/07/22 07:38:07;;;;;;;17.58;14.45;;;;;;;25.76;45.44;95810.41;5052009;28;20056;-71
2021/07/22 07:40:33;;;;;;;15.07;13.73;;;;;;;25.98;45.43;95808.50;5067093;28;20060;-67
2021/07/22 07:42:58;;;;;;;17.67;15.45;;;;;;;26.10;44.74;95812.81;5068301;28;20091;-66
2021/07/22 07:45:25;;;;;;;16.17;14.02;;;;;;;26.27;44.26;95806.59;5069850;28;20043;-67
2021/07/22 07:47:51;;;;;;;15.75;14.05;;;;;;;26.46;45.35;95807.38;5070152;28;20037;-68
2021/07/22 07:50:16;;;;;;;15.48;14.18;;;;;;;26.34;44.15;95814.00;5071800;28;20031;-66
2021/07/22 07:52:42;;;;;;;15.73;14.13;;;;;;;26.48;43.74;95819.47;5068526;28;20123;-67
2021/07/22 07:55:08;;;;;;;15.07;13.77;;;;;;;26.55;43.15;95811.28;5069607;28;20059;-67
2021/07/22 07:57:33;;;;;;;15.65;13.85;;;;;;;26.52;41.98;95800.41;5069363;28;20036;-66
2021/07/22 07:59:59;;;;;;;15.55;14.05;;;;;;;26.27;43.49;95809.31;5069774;28;20036;-66
2021/07/22 08:02:24;;;;;;;14.98;13.60;;;;;;;26.17;43.56;95810.09;5071121;28;20494;-65
2021/07/22 08:04:50;;;;;;;17.40;13.50;;;;;;;26.50;43.17;95808.19;5069625;28;20508;-65
2021/07/22 08:07:15;;;;;;;15.98;14.32;;;;;;;25.30;44.88;95815.69;5053081;28;20049;-66
2021/07/22 08:09:40;;;;;;;15.60;14.27;;;;;;;25.14;45.17;95813.28;5059223;28;20117;-66
2021/07/22 08:12:06;;;;;;;16.08;14.55;;;;;;;25.89;43.95;95811.59;5069445;28;20548;-66
2021/07/22 08:14:39;;;;;;;16.75;15.00;;;;;;;25.99;44.02;95807.34;5067861;28;20111;-65
2021/07/22 08:17:07;;;;;;;17.05;13.75;;;;;;;26.31;43.41;95812.84;5071397;28;20081;-67
2021/07/22 08:19:33;;;;;;;15.40;13.80;;;;;;;26.40;43.34;95796.84;5069179;28;20040;-66
2021/07/22 08:21:59;;;;;;;15.20;13.50;;;;;;;26.68;42.27;95808.94;5066324;28;20127;-66
2021/07/22 08:24:25;;;;;;;15.00;13.70;;;;;;;26.76;42.32;95801.50;5067016;28;20669;-65
2021/07/22 08:26:50;;;;;;;17.08;13.40;;;;;;;26.44;42.53;95808.56;5064836;28;20090;-66
2021/07/22 08:29:15;;;;;;;14.90;13.60;;;;;;;26.86;41.10;95811.63;5051188;28;20036;-66
2021/07/22 08:31:41;;;;;;;14.88;13.25;;;;;;;26.81;41.41;95801.13;5067163;28;20047;-66
2021/07/22 08:34:06;;;;;;;14.57;13.07;;;;;;;27.14;40.95;95808.09;5068449;28;20040;-66
2021/07/22 08:36:32;;;;;;;14.85;13.32;;;;;;;27.36;39.74;95806.06;5058533;28;20506;-66
2021/07/22 08:38:57;;;;;;;14.95;13.35;;;;;;;27.12;39.39;95803.00;5052602;28;20036;-66
2021/07/22 08:41:22;;;;;;;15.70;12.52;;;;;;;27.17;40.68;95804.56;5070988;28;20036;-66
2021/07/22 08:43:52;;;;;;;13.20;11.90;;;;;;;27.13;38.72;95796.41;5068254;28;20043;-66
2021/07/22 08:46:18;;;;;;;15.23;13.30;;;;;;;27.00;39.50;95797.19;5068705;28;20082;-67
2021/07/22 08:48:43;;;;;;;15.80;13.02;;;;;;;27.10;39.35;95810.06;5068657;28;20127;-66
2021/07/22 08:51:09;;;;;;;13.45;12.18;;;;;;;27.14;39.48;95797.94;5067542;28;20782;-67
2021/07/22 08:53:35;;;;;;;14.27;11.80;;;;;;;27.20;37.81;95801.81;5076685;28;20039;-66
2021/07/22 08:56:03;;;;;;;13.18;12.02;;;;;;;27.42;38.21;95805.25;5070466;28;20032;-66
2021/07/22 08:58:29;;;;;;;12.13;11.07;;;;;;;27.03;36.24;95745.31;5068559;28;20197;-66
2021/07/22 09:00:57;;;;;;;12.13;11.02;;;;;;;27.40;36.85;95787.72;5068936;28;20029;-66
2021/07/22 09:03:22;;;;;;;11.70;10.40;;;;;;;27.73;36.43;95802.78;5066604;28;20040;-66
2021/07/22 09:05:47;;;;;;;11.70;10.30;;;;;;;27.59;35.06;95789.97;5067082;28;20062;-67
2021/07/22 09:08:13;;;;;;;11.02;10.13;;;;;;;28.08;35.96;95801.03;5070289;28;20524;-66
2021/07/22 09:10:39;;;;;;;12.07;10.88;;;;;;;28.08;34.48;95792.81;5049426;28;20593;-66
2021/07/22 09:13:04;;;;;;;12.45;11.43;;;;;;;28.22;35.39;95803.66;5061043;28;20540;-66
2021/07/22 09:15:36;;;;;;;13.40;11.25;;;;;;;28.37;35.85;95793.41;5068228;28;20044;-66
2021/07/22 09:18:24;;;;;;;12.82;11.40;;;;;;;28.14;36.12;95793.94;5068295;28;20047;-66
2021/07/22 09:20:54;;;;;;;12.35;11.25;;;;;;;28.16;36.30;95792.38;5066876;28;22013;-66
2021/07/22 09:23:21;;;;;;;12.48;11.27;;;;;;;28.38;35.48;95793.00;5062726;28;20032;-67
2021/07/22 09:25:49;;;;;;;12.52;11.23;;;;;;;28.42;35.39;95785.53;5066388;28;20044;-67
2021/07/22 09:28:17;;;;;;;13.60;11.35;;;;;;;28.59;35.81;95786.56;5068253;28;20036;-67
2021/07/22 09:30:58;;;;;;;12.05;10.43;;;;;;;28.45;35.72;95790.19;5058100;28;20577;-66
2021/07/22 09:33:37;;;;;;;12.73;11.23;;;;;;;28.39;35.66;95793.78;5054969;28;20406;-68
2021/07/22 09:36:03;;;;;;;13.52;11.75;;;;;;;28.33;34.50;95790.69;5067215;28;20567;-66
2021/07/22 09:38:29;;;;;;;13.52;11.75;;;;;;;27.61;35.86;95773.16;5069988;28;20389;-66
2021/07/22 09:40:54;;;;;;;13.02;11.70;;;;;;;27.34;36.64;95784.63;5068259;28;20040;-66
2021/07/22 09:43:40;;;;;;;13.35;12.15;;;;;;;27.94;35.97;95769.84;5067728;28;20052;-67
2021/07/22 09:46:07;;;;;;;11.82;10.63;;;;;;;27.96;35.70;95781.19;5068189;28;20533;-67
2021/07/22 09:48:33;;;;;;;12.00;10.98;;;;;;;27.92;35.62;95769.47;5068038;28;20048;-66
2021/07/22 09:50:58;;;;;;;14.45;11.30;;;;;;;28.11;34.61;95775.63;5067405;28;20052;-76
2021/07/22 09:53:26;;;;;;;15.63;10.82;;;;;;;28.33;34.40;95763.34;5069313;28;20021;-64
2021/07/22 09:55:56;;;;;;;12.07;10.88;;;;;;;28.26;35.17;95779.78;5067603;28;20033;-64
2021/07/22 09:58:21;;;;;;;12.68;11.38;;;;;;;27.92;34.33;95755.81;5052349;28;20025;-65
2021/07/22 10:00:48;;;;;;;12.90;11.63;;;;;;;27.84;34.65;95754.28;5047902;28;20037;-63
2021/07/22 10:03:16;;;;;;;11.32;10.20;;;;;;;28.05;34.53;95706.09;5049912;28;20072;-63
2021/07/22 10:06:05;;;;;;;11.98;10.98;;;;;;;28.26;34.16;95760.66;5051717;28;20109;-65
2021/07/22 10:08:32;;;;;;;11.95;10.82;;;;;;;27.86;34.30;95751.94;5048389;28;20036;-68
2021/07/22 10:10:59;;;;;;;11.82;10.68;;;;;;;28.02;33.56;95745.19;5072087;28;20029;-65
2021/07/22 10:13:42;;;;;;;13.02;11.75;;;;;;;28.34;34.76;95773.09;5069910;28;20035;-64
2021/07/22 10:16:14;;;;;;;11.07;10.07;;;;;;;28.42;34.01;95751.94;5058076;28;20490;-64
2021/07/22 10:18:47;;;;;;;13.00;11.80;;;;;;;28.27;34.31;95759.47;5060949;28;20036;-66
2021/07/22 10:21:13;;;;;;;12.27;11.07;;;;;;;28.07;33.79;95755.72;5069503;28;20048;-65
2021/07/22 10:23:40;;;;;;;12.38;11.15;;;;;;;27.37;34.81;95763.91;5069590;28;20024;-63
2021/07/22 10:26:07;;;;;;;14.13;11.57;;;;;;;28.12;34.64;95767.00;5053277;28;20037;-64
2021/07/22 10:28:33;;;;;;;12.75;11.68;;;;;;;28.14;35.25;95752.91;5051578;28;20029;-66
2021/07/22 10:31:02;;;;;;;13.18;12.10;;;;;;;28.35;34.89;95755.50;5063589;28;20033;-65
2021/07/22 10:33:27;;;;;;;12.52;11.52;;;;;;;28.74;35.97;95743.41;5071114;28;20116;-66
2021/07/22 10:35:54;;;;;;;12.80;11.60;;;;;;;28.54;34.41;95715.06;5071188;28;20120;-64
2021/07/22 10:38:21;;;;;;;11.95;10.85;;;;;;;29.07;33.25;95741.09;5079788;28;20066;-64
2021/07/22 10:41:01;;;;;;;12.00;10.82;;;;;;;29.60;34.65;95756.91;5086574;28;20044;-63
2021/07/22 10:43:42;;;;;;;13.25;11.48;;;;;;;29.52;33.39;95761.66;5070659;28;20033;-63
2021/07/22 10:46:07;;;;;;;;;;;;;;;28.98;32.42;95752.56;5071723;28;20079;-63
2021/07/22 10:48:33;;;;;;;12.73;11.43;;;;;;;29.22;33.10;95747.97;5071088;28;20390;-64
2021/07/22 10:51:03;;;;;;;11.88;10.90;;;;;;;29.85;33.22;95750.31;5065743;28;20581;-64
2021/07/22 10:53:48;;;;;;;11.97;10.83;;;;;;;30.03;33.56;95740.59;5075511;28;20029;-64
2021/07/22 10:56:13;;;;;;;13.02;11.82;;;;;;;30.10;31.77;95742.47;5071193;28;20279;-63
2021/07/22 10:58:38;;;;;;;13.15;11.82;;;;;;;29.88;32.44;95743.97;5052078;28;20072;-62
2021/07/22 11:01:05;;;;;;;12.55;11.50;;;;;;;29.86;33.34;95741.66;5063542;28;20585;-63
2021/07/22 11:03:37;;;;;;;12.25;11.15;;;;;;;29.19;33.46;95743.31;5070035;28;20546;-63
2021/07/22 11:06:14;;;;;;;12.30;11.40;;;;;;;29.08;33.62;95731.72;5070593;28;20113;-63
2021/07/22 11:08:41;;;;;;;12.93;11.82;;;;;;;28.79;33.08;95739.44;5065990;28;20036;-63
2021/07/22 11:11:15;;;;;;;13.32;12.02;;;;;;;27.95;34.22;95735.09;5072025;28;20459;-63
2021/07/22 11:13:44;;;;;;;11.88;10.88;;;;;;;29.29;33.99;95747.13;5068469;28;20040;-62